Time;durP1;ratioP1;P1;durP2;ratioP2;P2;SDS_P1;SDS_P2;PMS_P1;PMS_P2;Temp;Humidity;BMP_temperature;BMP_pressure;BME280_temperature;BME280_humidity;BME280_pressure;Samples;Min_cycle;Max_cycle;Signal;HPM_P1;HPM_P2
2022/10/16 00:01:15;;;;;;;13.63;8.23;;;;;;;11.69;100.00;95085.94;5055865;28;20213;-62
2022/10/16 00:03:42;;;;;;;12.97;8.73;;;;;;;11.80;100.00;95107.06;5072495;28;20739;-63
2022/10/16 00:06:09;;;;;;;12.27;9.07;;;;;;;11.64;100.00;95086.28;5072491;28;20244;-65
2022/10/16 00:08:35;;;;;;;16.50;9.00;;;;;;;11.69;100.00;95099.50;5073525;28;20258;-61
2022/10/16 00:11:07;;;;;;;13.07;8.83;;;;;;;11.59;100.00;95085.06;5073776;28;20193;-63
2022/10/16 00:13:35;;;;;;;17.10;9.90;;;;;;;11.33;100.00;95071.09;5073897;28;20552;-64
2022/10/16 00:16:01;;;;;;;15.07;9.17;;;;;;;11.44;100.00;95066.75;5073621;28;20185;-62
2022/10/16 00:18:28;;;;;;;17.03;9.37;;;;;;;11.43;100.00;95074.50;5073713;28;20243;-60
2022/10/16 00:20:54;;;;;;;13.47;8.23;;;;;;;11.48;100.00;95077.47;5073594;28;20192;-62
2022/10/16 00:23:20;;;;;;;11.67;9.33;;;;;;;11.53;100.00;95088.09;5073687;28;20258;-63
2022/10/16 00:25:57;;;;;;;14.50;9.87;;;;;;;11.50;100.00;95085.78;5073338;28;20201;-64
2022/10/16 00:28:23;;;;;;;14.37;9.07;;;;;;;11.51;100.00;95085.66;5073465;28;20653;-62
2022/10/16 00:30:49;;;;;;;13.53;9.27;;;;;;;11.61;100.00;95101.84;5073450;28;20204;-62
2022/10/16 00:33:14;;;;;;;13.60;8.63;;;;;;;11.55;100.00;95099.75;5073374;28;20197;-60
2022/10/16 00:35:39;;;;;;;11.63;9.07;;;;;;;11.57;100.00;95109.84;5073444;28;20200;-64
2022/10/16 00:38:05;;;;;;;13.60;8.50;;;;;;;11.54;100.00;95113.44;5073183;28;20202;-64
2022/10/16 00:40:31;;;;;;;14.77;8.63;;;;;;;11.57;100.00;95120.81;5055311;28;20287;-62
2022/10/16 00:42:57;;;;;;;14.90;8.00;;;;;;;11.50;100.00;95104.44;5072103;28;20185;-62
2022/10/16 00:45:22;;;;;;;11.90;8.33;;;;;;;11.62;100.00;95130.63;5055272;28;20213;-66
2022/10/16 00:47:51;;;;;;;15.60;9.07;;;;;;;11.44;100.00;95099.84;5055221;28;20236;-62
2022/10/16 00:50:34;;;;;;;13.33;8.17;;;;;;;11.44;100.00;95117.66;5072965;28;20209;-62
2022/10/16 00:53:01;;;;;;;14.63;7.73;;;;;;;11.28;100.00;95101.19;5073194;28;20204;-63
2022/10/16 00:55:30;;;;;;;11.77;8.40;;;;;;;11.19;100.00;95094.31;5073009;28;20306;-61
2022/10/16 00:57:56;;;;;;;10.27;8.27;;;;;;;11.21;100.00;95100.88;5072940;28;20193;-62
2022/10/16 01:00:24;;;;;;;14.60;8.07;;;;;;;11.37;100.00;95125.91;5072905;28;20232;-65
2022/10/16 01:02:58;;;;;;;13.13;7.93;;;;;;;11.13;100.00;95100.66;5071494;28;20199;-65
2022/10/16 01:05:41;;;;;;;11.10;7.67;;;;;;;11.06;100.00;95101.28;5054726;28;20208;-65
2022/10/16 01:08:16;;;;;;;11.40;7.53;;;;;;;11.33;100.00;95134.72;5072714;28;20283;-64
2022/10/16 01:10:54;;;;;;;10.27;7.43;;;;;;;11.35;100.00;95140.50;5072731;28;20274;-63
2022/10/16 01:13:37;;;;;;;10.17;7.83;;;;;;;11.16;100.00;95125.88;5054628;28;20671;-65
2022/10/16 01:16:13;;;;;;;13.03;7.80;;;;;;;10.82;100.00;95091.31;5072813;28;20220;-63
2022/10/16 01:18:56;;;;;;;11.17;7.33;;;;;;;10.77;100.00;95108.66;5071324;28;20201;-65
2022/10/16 01:21:32;;;;;;;12.43;8.10;;;;;;;10.78;100.00;95095.84;5072964;28;20192;-61
2022/10/16 01:24:35;;;;;;;12.73;7.70;;;;;;;11.16;100.00;95117.44;5072840;28;20248;-61
2022/10/16 01:27:17;;;;;;;12.63;8.70;;;;;;;10.98;100.00;95107.00;5072517;28;20700;-60
2022/10/16 01:30:13;;;;;;;10.07;6.27;;;;;;;10.80;100.00;95116.06;5071458;28;20372;-62
2022/10/16 01:32:41;;;;;;;7.97;5.70;;;;;;;10.57;100.00;95101.78;5063698;28;20666;-63
2022/10/16 01:35:17;;;;;;;8.00;5.97;;;;;;;10.42;100.00;95087.72;5071076;28;20225;-65
2022/10/16 01:37:48;;;;;;;5.23;4.37;;;;;;;10.55;100.00;95123.97;5072217;28;20181;-60
2022/10/16 01:40:19;;;;;;;7.13;4.70;;;;;;;10.45;100.00;95120.50;5072276;28;20209;-62
2022/10/16 01:42:54;;;;;;;5.27;3.80;;;;;;;10.41;100.00;95132.66;5072150;28;20195;-62
2022/10/16 01:45:21;;;;;;;6.07;4.13;;;;;;;10.17;100.00;95118.47;5072030;28;20212;-63
2022/10/16 01:47:49;;;;;;;4.80;3.70;;;;;;;10.20;100.00;95123.31;5072252;28;20205;-60
2022/10/16 01:50:18;;;;;;;4.10;3.30;;;;;;;10.13;100.00;95125.50;5054048;28;20208;-63
2022/10/16 01:52:46;;;;;;;6.80;3.93;;;;;;;10.04;100.00;95104.13;5071686;28;20208;-64
2022/10/16 01:55:18;;;;;;;6.07;3.77;;;;;;;10.10;100.00;95134.16;5070875;28;20682;-59
2022/10/16 01:57:48;;;;;;;8.93;3.70;;;;;;;10.15;100.00;95146.53;5070671;28;20254;-63
2022/10/16 02:00:15;;;;;;;4.70;3.90;;;;;;;10.14;100.00;95138.09;5071988;28;20682;-64
2022/10/16 02:02:44;;;;;;;5.83;3.30;;;;;;;10.19;100.00;95142.84;5071820;28;20271;-63
2022/10/16 02:05:31;;;;;;;4.97;3.50;;;;;;;10.11;100.00;95148.50;5054256;28;20205;-62
2022/10/16 02:07:57;;;;;;;3.93;3.50;;;;;;;10.12;100.00;95152.63;5071778;28;20303;-62
2022/10/16 02:10:25;;;;;;;8.37;4.00;;;;;;;10.26;100.00;95135.56;5071837;28;20304;-63
2022/10/16 02:13:08;;;;;;;4.93;3.73;;;;;;;10.23;100.00;95156.09;5071773;28;20181;-63
2022/10/16 02:15:34;;;;;;;4.77;3.50;;;;;;;10.30;100.00;95154.72;5071713;28;20705;-63
2022/10/16 02:18:01;;;;;;;6.83;3.90;;;;;;;10.19;100.00;95162.34;5071805;28;20227;-63
2022/10/16 02:20:32;;;;;;;5.20;3.70;;;;;;;10.05;100.00;95164.16;5071799;28;20217;-61
2022/10/16 02:22:58;;;;;;;4.67;3.77;;;;;;;10.11;100.00;95170.53;5054309;23;20222;-65
2022/10/16 02:25:30;;;;;;;6.37;3.53;;;;;;;10.14;100.00;95185.53;5031639;28;20268;-60
2022/10/16 02:28:06;;;;;;;5.87;3.70;;;;;;;9.85;100.00;95144.50;5032166;28;20210;-60
2022/10/16 02:30:55;;;;;;;6.50;3.70;;;;;;;9.88;100.00;95134.13;5031749;28;20237;-63
2022/10/16 02:33:22;;;;;;;7.07;4.97;;;;;;;9.84;100.00;95127.66;5030951;28;20578;-60
2022/10/16 02:35:50;;;;;;;6.57;3.30;;;;;;;9.93;100.00;95151.56;5031456;28;20242;-62
2022/10/16 02:38:17;;;;;;;4.17;3.27;;;;;;;9.93;100.00;95170.16;5031632;28;20695;-63
2022/10/16 02:40:43;;;;;;;5.50;4.27;;;;;;;9.85;100.00;95164.00;5030212;28;20301;-63
2022/10/16 02:43:09;;;;;;;4.87;3.60;;;;;;;9.80;100.00;95156.72;5031527;28;20276;-63
2022/10/16 02:45:35;;;;;;;4.60;3.27;;;;;;;9.77;100.00;95156.16;5031183;28;20237;-62
2022/10/16 02:48:01;;;;;;;4.10;3.70;;;;;;;9.68;100.00;95152.56;5031229;28;20219;-62
2022/10/16 02:50:26;;;;;;;5.23;3.57;;;;;;;9.66;100.00;95139.16;5031158;28;20716;-64
2022/10/16 02:52:52;;;;;;;5.20;3.90;;;;;;;9.58;100.00;95136.38;5013401;28;20229;-64
2022/10/16 02:55:17;;;;;;;4.33;3.63;;;;;;;9.66;100.00;95145.97;5031207;28;20222;-64
2022/10/16 02:57:43;;;;;;;5.40;3.90;;;;;;;9.63;100.00;95158.88;5029850;28;20201;-61
2022/10/16 03:00:13;;;;;;;6.73;3.57;;;;;;;9.70;100.00;95165.13;5031134;28;20217;-60
2022/10/16 03:02:39;;;;;;;6.23;3.90;;;;;;;9.58;100.00;95171.91;5031149;28;20272;-62
2022/10/16 03:05:05;;;;;;;8.10;4.60;;;;;;;9.50;100.00;95171.66;5030082;28;20263;-62
2022/10/16 03:07:30;;;;;;;19.30;12.50;;;;;;;9.40;100.00;95152.94;5013099;28;20220;-64
2022/10/16 03:09:56;;;;;;;8.57;6.20;;;;;;;9.47;100.00;95154.13;5030284;28;20210;-62
2022/10/16 03:12:21;;;;;;;8.00;4.30;;;;;;;9.26;100.00;95148.03;5028569;28;20194;-62
2022/10/16 03:14:47;;;;;;;6.10;4.63;;;;;;;9.23;100.00;95159.22;5029295;28;20355;-62
2022/10/16 03:17:13;;;;;;;5.20;4.43;;;;;;;9.30;100.00;95157.88;5028652;28;20190;-62
2022/10/16 03:19:38;;;;;;;4.93;4.30;;;;;;;9.27;100.00;95163.16;5030947;28;20208;-64
2022/10/16 03:22:04;;;;;;;6.87;4.50;;;;;;;9.52;100.00;95166.47;5013342;28;20324;-60
2022/10/16 03:24:29;;;;;;;8.47;5.90;;;;;;;9.43;100.00;95167.97;5030714;28;20220;-62
2022/10/16 03:26:55;;;;;;;10.83;5.40;;;;;;;9.58;100.00;95176.97;5031046;28;21095;-61
2022/10/16 03:29:20;;;;;;;6.30;4.87;;;;;;;9.65;100.00;95180.72;5049270;22;20702;-62
2022/10/16 03:31:45;;;;;;;5.70;4.50;;;;;;;9.57;100.00;95183.00;5070543;28;20583;-60
2022/10/16 03:34:11;;;;;;;6.50;5.00;;;;;;;9.39;100.00;95173.34;5070707;28;20233;-63
2022/10/16 03:36:36;;;;;;;5.10;4.40;;;;;;;9.34;100.00;95178.75;5052522;28;20197;-63
2022/10/16 03:39:02;;;;;;;8.43;4.60;;;;;;;9.21;100.00;95178.03;5070196;28;20266;-61
2022/10/16 03:41:28;;;;;;;6.33;4.90;;;;;;;9.38;100.00;95174.25;5068194;28;20192;-63
2022/10/16 03:43:53;;;;;;;10.70;7.37;;;;;;;9.42;100.00;95171.41;5049683;28;20209;-59
2022/10/16 03:46:18;;;;;;;6.00;5.13;;;;;;;9.51;100.00;95180.09;5069374;28;20250;-59
2022/10/16 03:48:44;;;;;;;5.33;4.83;;;;;;;9.44;100.00;95176.34;5070562;28;20220;-62
2022/10/16 03:51:09;;;;;;;8.63;6.03;;;;;;;9.38;100.00;95179.31;5070963;28;20250;-60
2022/10/16 03:53:35;;;;;;;7.17;4.70;;;;;;;9.07;100.00;95175.66;5069190;28;20197;-63
2022/10/16 03:56:01;;;;;;;5.30;4.40;;;;;;;9.09;100.00;95168.75;5070497;28;20253;-61
2022/10/16 03:58:26;;;;;;;6.90;5.10;;;;;;;9.19;100.00;95174.78;5070458;28;20188;-62
2022/10/16 04:00:52;;;;;;;7.27;4.73;;;;;;;9.13;100.00;95173.47;5070298;28;20185;-62
2022/10/16 04:03:18;;;;;;;7.77;5.30;;;;;;;9.05;100.00;95163.06;5070201;28;20204;-63
2022/10/16 04:05:44;;;;;;;11.17;4.70;;;;;;;9.18;100.00;95163.00;5052067;28;20732;-62
2022/10/16 04:08:10;;;;;;;8.27;5.03;;;;;;;9.30;100.00;95174.81;5070186;28;20554;-60
2022/10/16 04:10:35;;;;;;;10.50;4.87;;;;;;;9.32;100.00;95180.59;5070033;28;20238;-64
2022/10/16 04:13:00;;;;;;;7.03;5.23;;;;;;;9.20;100.00;95163.69;5068304;28;20662;-62
2022/10/16 04:15:26;;;;;;;10.90;6.87;;;;;;;9.21;100.00;95168.66;5068929;28;20250;-63
2022/10/16 04:17:52;;;;;;;8.27;5.23;;;;;;;9.37;100.00;95177.72;5073173;28;20230;-63
2022/10/16 04:20:18;;;;;;;7.83;5.00;;;;;;;9.49;100.00;95192.06;5072020;28;20770;-62
2022/10/16 04:22:44;;;;;;;8.77;5.87;;;;;;;9.32;100.00;95180.59;5073537;28;20654;-64
2022/10/16 04:25:11;;;;;;;9.63;5.77;;;;;;;9.40;100.00;95182.56;5055339;28;20647;-64
2022/10/16 04:27:36;;;;;;;7.77;5.93;;;;;;;9.49;100.00;95192.06;5055290;28;20209;-62
2022/10/16 04:30:02;;;;;;;8.10;5.53;;;;;;;9.56;100.00;95194.06;5073644;28;20220;-64
2022/10/16 04:32:28;;;;;;;9.67;5.93;;;;;;;9.51;100.00;95196.13;5055878;28;20249;-61
2022/10/16 04:34:53;;;;;;;9.83;6.57;;;;;;;9.51;100.00;95191.06;5073697;28;20213;-62
2022/10/16 04:37:19;;;;;;;8.87;6.00;;;;;;;9.46;100.00;95193.09;5073462;28;20188;-64
2022/10/16 04:39:44;;;;;;;9.73;5.90;;;;;;;9.41;100.00;95192.63;5072098;28;20711;-63
2022/10/16 04:42:10;;;;;;;12.37;6.67;;;;;;;9.40;100.00;95197.78;5055220;28;20213;-61
2022/10/16 04:44:36;;;;;;;8.20;5.50;;;;;;;9.34;100.00;95191.44;5063111;23;20217;-63
2022/10/16 04:47:01;;;;;;;8.57;5.80;;;;;;;9.54;100.00;95216.19;5033104;28;20288;-62
2022/10/16 04:49:26;;;;;;;6.73;5.13;;;;;;;9.48;100.00;95210.75;5033079;28;20739;-63
2022/10/16 04:51:52;;;;;;;7.73;5.90;;;;;;;9.53;100.00;95208.69;5032986;28;20189;-62
2022/10/16 04:54:17;;;;;;;8.13;5.60;;;;;;;9.69;100.00;95227.81;5032846;28;20332;-63
2022/10/16 04:56:46;;;;;;;9.97;6.30;;;;;;;9.51;100.00;95210.53;5033259;28;20703;-62
2022/10/16 04:59:14;;;;;;;8.63;6.33;;;;;;;9.49;100.00;95213.19;5033287;28;20214;-63
2022/10/16 05:01:39;;;;;;;9.43;5.67;;;;;;;9.65;100.00;95212.91;5015228;28;20186;-63
2022/10/16 05:04:05;;;;;;;7.07;5.50;;;;;;;9.97;100.00;95226.59;5033303;28;20560;-62
2022/10/16 05:06:30;;;;;;;6.93;5.57;;;;;;;9.79;100.00;95241.44;5032773;28;20233;-60
2022/10/16 05:08:56;;;;;;;7.43;5.80;;;;;;;9.61;100.00;95232.63;5032931;28;20229;-59
2022/10/16 05:11:21;;;;;;;7.13;6.00;;;;;;;9.70;100.00;95237.03;5032862;28;20256;-64
2022/10/16 05:13:46;;;;;;;14.40;6.50;;;;;;;9.68;100.00;95230.44;5032864;28;20589;-63
2022/10/16 05:16:12;;;;;;;11.60;5.80;;;;;;;9.71;100.00;95227.69;5032705;28;20182;-60
2022/10/16 05:18:38;;;;;;;7.50;5.23;;;;;;;9.98;100.00;95264.56;5014876;28;20628;-64
2022/10/16 05:21:03;;;;;;;9.90;6.20;;;;;;;10.00;100.00;95270.34;5014819;28;20227;-61
2022/10/16 05:23:28;;;;;;;6.40;5.53;;;;;;;9.79;100.00;95268.56;5032484;28;20190;-60
2022/10/16 05:25:59;;;;;;;11.67;5.23;;;;;;;9.70;100.00;95247.19;5014746;28;20607;-61
2022/10/16 05:28:26;;;;;;;7.00;5.03;;;;;;;9.85;100.00;95289.25;5031983;28;20225;-62
2022/10/16 05:30:51;;;;;;;5.80;4.63;;;;;;;9.66;100.00;95294.00;5032488;28;20193;-59
2022/10/16 05:33:17;;;;;;;6.17;4.30;;;;;;;9.38;100.00;95250.38;5032699;28;20190;-63
2022/10/16 05:35:44;;;;;;;6.60;4.63;;;;;;;9.29;100.00;95249.31;5014635;28;20221;-63
2022/10/16 05:38:09;;;;;;;11.40;4.77;;;;;;;9.32;100.00;95265.13;5032427;28;20190;-62
2022/10/16 05:40:35;;;;;;;6.20;5.03;;;;;;;9.28;100.00;95240.06;5032215;28;20289;-60
2022/10/16 05:43:00;;;;;;;8.30;5.13;;;;;;;9.22;100.00;95228.63;5032406;28;20718;-62
2022/10/16 05:45:26;;;;;;;7.40;4.73;;;;;;;9.18;100.00;95231.50;5032256;28;20845;-60
2022/10/16 05:47:52;;;;;;;8.10;4.80;;;;;;;9.35;100.00;95235.38;5030759;28;20205;-61
2022/10/16 05:50:17;;;;;;;6.17;4.80;;;;;;;9.30;100.00;95258.53;5029838;28;20702;-60
2022/10/16 05:52:42;;;;;;;8.90;5.33;;;;;;;9.18;100.00;95246.72;5031787;28;20194;-62
2022/10/16 05:55:08;;;;;;;7.27;4.90;;;;;;;9.12;100.00;95235.28;5032202;28;20272;-62
2022/10/16 05:57:33;;;;;;;5.43;4.47;;;;;;;9.25;100.00;95246.16;5076563;22;20224;-63
2022/10/16 05:59:59;;;;;;;6.27;4.60;;;;;;;9.41;100.00;95266.22;5071919;28;20694;-62
2022/10/16 06:02:24;;;;;;;5.50;4.90;;;;;;;9.26;100.00;95257.13;5071799;28;20246;-60
2022/10/16 06:04:53;;;;;;;5.83;4.60;;;;;;;9.33;100.00;95265.94;5053684;28;20208;-62
2022/10/16 06:07:19;;;;;;;4.97;4.17;;;;;;;9.36;100.00;95270.78;5071796;28;20217;-62
2022/10/16 06:09:47;;;;;;;6.00;4.27;;;;;;;9.26;100.00;95257.13;5071747;28;20204;-63
2022/10/16 06:12:12;;;;;;;7.10;4.73;;;;;;;9.46;100.00;95274.31;5071685;28;20189;-64
2022/10/16 06:14:38;;;;;;;6.00;4.77;;;;;;;9.61;100.00;95293.53;5053893;28;20207;-59
2022/10/16 06:17:03;;;;;;;7.23;5.50;;;;;;;9.50;100.00;95283.31;5071740;28;20192;-63
2022/10/16 06:19:29;;;;;;;8.97;5.10;;;;;;;9.64;100.00;95277.25;5071583;28;20292;-62
2022/10/16 06:21:54;;;;;;;8.10;5.33;;;;;;;9.72;100.00;95292.75;5071422;28;20346;-62
2022/10/16 06:24:19;;;;;;;8.80;5.53;;;;;;;9.77;100.00;95298.34;5071505;28;20208;-64
2022/10/16 06:26:45;;;;;;;6.70;5.17;;;;;;;9.91;100.00;95303.22;5071390;28;20212;-59
2022/10/16 06:29:11;;;;;;;6.47;5.30;;;;;;;9.93;100.00;95317.44;5071439;28;20697;-63
2022/10/16 06:31:36;;;;;;;7.57;5.53;;;;;;;10.07;100.00;95317.28;5071748;28;20204;-60
2022/10/16 06:34:03;;;;;;;8.87;5.13;;;;;;;10.21;100.00;95323.09;5053390;28;20702;-59
2022/10/16 06:36:28;;;;;;;8.10;5.03;;;;;;;10.29;100.00;95349.59;5063388;23;20236;-64
2022/10/16 06:38:54;;;;;;;7.20;4.93;;;;;;;10.27;100.00;95338.72;5031020;28;20218;-62
2022/10/16 06:41:21;;;;;;;7.80;5.17;;;;;;;10.31;100.00;95326.59;5030574;28;20218;-63
2022/10/16 06:43:47;;;;;;;8.93;4.73;;;;;;;10.44;100.00;95342.56;5031366;28;20206;-60
2022/10/16 06:46:15;;;;;;;10.60;6.03;;;;;;;10.23;100.00;95316.19;5031126;28;20221;-63
2022/10/16 06:48:41;;;;;;;8.80;6.27;;;;;;;10.25;100.00;95297.38;5031173;28;20210;-62
2022/10/16 06:51:11;;;;;;;7.57;5.33;;;;;;;10.45;100.00;95318.78;5030791;28;20194;-62
2022/10/16 06:53:40;;;;;;;11.37;6.20;;;;;;;10.61;100.00;95319.25;5031279;28;20308;-64
2022/10/16 06:56:11;;;;;;;9.20;5.53;;;;;;;10.71;100.00;95338.00;5031411;28;20316;-63
2022/10/16 06:58:37;;;;;;;8.50;5.83;;;;;;;10.82;100.00;95350.72;5031125;28;20300;-62
2022/10/16 07:01:03;;;;;;;10.80;5.97;;;;;;;10.93;100.00;95364.25;5031173;28;20228;-62
2022/10/16 07:03:28;;;;;;;7.67;5.93;;;;;;;10.70;100.00;95371.97;5030934;28;20696;-63
2022/10/16 07:05:54;;;;;;;10.40;6.30;;;;;;;11.18;100.00;95409.03;5030962;28;20325;-62
2022/10/16 07:08:19;;;;;;;8.60;6.30;;;;;;;11.25;100.00;95387.28;5031151;28;20190;-64
2022/10/16 07:10:44;;;;;;;10.03;6.87;;;;;;;11.26;100.00;95373.66;5031035;28;20216;-63
2022/10/16 07:13:13;;;;;;;14.90;6.97;;;;;;;11.37;100.00;95380.47;5013135;28;20189;-62
2022/10/16 07:15:39;;;;;;;7.97;6.27;;;;;;;11.49;100.00;95372.69;5031068;28;20221;-59
2022/10/16 07:18:04;;;;;;;10.70;6.77;;;;;;;11.48;100.00;95395.72;5030990;28;20205;-63
2022/10/16 07:20:30;;;;;;;10.27;6.93;;;;;;;11.78;99.60;95450.25;5030964;28;20301;-60
2022/10/16 07:22:55;;;;;;;11.73;7.30;;;;;;;11.73;99.55;95433.72;5030892;28;20171;-62
2022/10/16 07:25:20;;;;;;;10.27;7.03;;;;;;;11.69;100.00;95397.50;5030744;28;20226;-62
2022/10/16 07:27:46;;;;;;;11.73;7.60;;;;;;;11.69;100.00;95400.03;5012886;28;20308;-63
2022/10/16 07:30:11;;;;;;;13.13;7.20;;;;;;;11.92;100.00;95410.19;5067699;23;20256;-60
2022/10/16 07:32:37;;;;;;;12.53;6.90;;;;;;;11.68;100.00;95421.31;5050623;28;20265;-64
2022/10/16 07:35:09;;;;;;;12.87;7.07;;;;;;;11.90;100.00;95415.38;5049979;28;20213;-62
2022/10/16 07:37:35;;;;;;;13.73;7.17;;;;;;;12.15;97.62;95455.06;5050525;28;20676;-61
2022/10/16 07:40:00;;;;;;;12.70;7.33;;;;;;;12.34;96.19;95473.88;5050301;28;20334;-62
2022/10/16 07:42:27;;;;;;;16.73;8.00;;;;;;;12.24;96.44;95459.44;5050406;28;20181;-64
2022/10/16 07:44:52;;;;;;;13.97;7.63;;;;;;;12.17;98.01;95433.63;5050705;28;20209;-63
2022/10/16 07:47:18;;;;;;;10.97;7.13;;;;;;;12.47;100.00;95331.75;5050188;28;20259;-59
2022/10/16 07:49:43;;;;;;;11.00;7.50;;;;;;;12.52;100.00;95411.22;5050707;28;20210;-59
2022/10/16 07:52:08;;;;;;;7.97;6.33;;;;;;;12.59;99.99;95431.94;5052576;28;20189;-59
2022/10/16 07:54:34;;;;;;;11.10;6.57;;;;;;;12.73;97.82;95461.44;5053954;28;20663;-62
2022/10/16 07:56:59;;;;;;;9.37;5.83;;;;;;;12.93;93.42;95498.97;5052622;28;20718;-61
2022/10/16 07:59:25;;;;;;;8.68;6.40;;;;;;;13.06;93.09;95502.16;5053493;28;20216;-60
2022/10/16 08:01:50;;;;;;;10.55;6.22;;;;;;;13.16;92.21;95503.03;5053754;28;20201;-60
2022/10/16 08:04:16;;;;;;;11.00;5.90;;;;;;;13.15;89.96;95525.19;5053091;28;20206;-63
2022/10/16 08:06:41;;;;;;;7.90;6.13;;;;;;;13.26;91.53;95509.03;5053216;28;20649;-63
2022/10/16 08:09:08;;;;;;;10.45;6.03;;;;;;;13.51;88.20;95553.81;5052305;28;20209;-62
2022/10/16 08:11:34;;;;;;;5.67;5.03;;;;;;;13.73;86.27;95585.16;5052235;28;20717;-60
2022/10/16 08:13:59;;;;;;;11.90;6.63;;;;;;;13.81;84.23;95598.09;5053538;28;20232;-63
2022/10/16 08:16:24;;;;;;;6.88;5.32;;;;;;;13.96;83.44;95598.56;5053401;28;20177;-63
2022/10/16 08:18:51;;;;;;;13.15;5.80;;;;;;;14.03;83.94;95577.50;5052201;28;20691;-63
2022/10/16 08:21:19;;;;;;;10.63;5.40;;;;;;;14.16;83.99;95578.06;5053431;28;20188;-63
2022/10/16 08:23:44;;;;;;;9.50;6.05;;;;;;;14.25;83.70;95571.38;5053343;28;20227;-63
2022/10/16 08:26:11;;;;;;;6.90;4.90;;;;;;;14.55;83.59;95573.94;5052976;28;20181;-62
2022/10/16 08:28:37;;;;;;;11.70;5.70;;;;;;;14.92;81.72;95610.78;5051997;28;20284;-60
2022/10/16 08:31:13;;;;;;;6.97;5.15;;;;;;;15.07;79.87;95622.25;5053206;28;20192;-59
2022/10/16 08:33:40;;;;;;;7.93;4.63;;;;;;;15.32;79.33;95632.91;5053560;28;20189;-58
2022/10/16 08:36:06;;;;;;;6.97;4.55;;;;;;;15.61;77.35;95652.53;5053181;28;20181;-62
2022/10/16 08:38:33;;;;;;;6.88;4.43;;;;;;;15.83;76.33;95671.94;5088066;23;20229;-63
2022/10/16 08:41:13;;;;;;;7.55;5.50;;;;;;;16.03;76.44;95652.19;5072899;28;20578;-63
2022/10/16 08:43:41;;;;;;;5.68;4.88;;;;;;;16.23;74.36;95684.53;5072987;28;20223;-59
2022/10/16 08:46:19;;;;;;;8.27;4.20;;;;;;;16.62;73.76;95688.66;5048951;23;20230;-59
2022/10/16 08:48:50;;;;;;;8.25;4.53;;;;;;;16.97;71.58;95724.72;5032895;28;20214;-63
2022/10/16 08:51:26;;;;;;;6.53;4.13;;;;;;;17.35;68.08;95782.84;5032842;28;20206;-63
2022/10/16 08:54:01;;;;;;;8.00;4.10;;;;;;;17.57;68.08;95765.28;5032769;28;20202;-64
2022/10/16 08:56:27;;;;;;;4.22;3.83;;;;;;;17.67;65.49;95814.09;5015110;28;20190;-63
2022/10/16 08:58:54;;;;;;;7.78;3.45;;;;;;;17.96;61.43;95896.22;5032989;28;20248;-62
2022/10/16 09:01:24;;;;;;;6.13;4.45;;;;;;;18.03;60.66;95892.16;5032761;28;20182;-61
2022/10/16 09:04:02;;;;;;;7.03;4.07;;;;;;;18.16;63.13;95793.00;5014752;28;20202;-62
2022/10/16 09:06:50;;;;;;;7.00;3.83;;;;;;;18.54;61.79;95824.59;5032614;28;20218;-61
2022/10/16 09:09:34;;;;;;;4.63;3.88;;;;;;;18.98;61.44;95831.31;5032735;28;20210;-59
2022/10/16 09:12:27;;;;;;;3.70;3.33;;;;;;;19.40;58.77;95886.38;5032709;28;20213;-63
2022/10/16 09:15:12;;;;;;;7.05;3.28;;;;;;;19.31;54.58;95963.84;5032769;28;20213;-63
2022/10/16 09:17:55;;;;;;;4.68;3.42;;;;;;;19.21;55.34;95912.34;5014674;28;20192;-61
2022/10/16 09:20:23;;;;;;;5.47;2.70;;;;;;;19.53;54.66;95928.06;5032902;28;20589;-61
2022/10/16 09:23:03;;;;;;;3.42;2.85;;;;;;;19.50;53.31;95946.41;5032543;28;20766;-61
2022/10/16 09:25:30;;;;;;;4.55;2.90;;;;;;;19.74;54.70;95894.94;5014693;28;20240;-61
2022/10/16 09:27:55;;;;;;;7.43;3.50;;;;;;;19.68;52.13;95972.97;5063274;22;20266;-62
2022/10/16 09:30:21;;;;;;;3.63;3.15;;;;;;;19.86;52.36;95953.06;5072267;28;20287;-63
2022/10/16 09:32:51;;;;;;;5.03;3.72;;;;;;;19.84;51.82;95956.75;5072403;28;20196;-62
2022/10/16 09:35:21;;;;;;;4.75;3.28;;;;;;;19.98;50.85;95993.13;5072326;28;20201;-65
2022/10/16 09:37:49;;;;;;;4.40;3.08;;;;;;;20.26;51.54;95938.72;5072222;28;20379;-59
2022/10/16 09:40:34;;;;;;;6.10;3.05;;;;;;;20.54;50.32;95981.44;5072069;28;20197;-59
2022/10/16 09:43:57;;;;;;;3.90;2.50;;;;;;;20.43;47.91;96056.63;5072451;28;20204;-59
2022/10/16 09:46:28;;;;;;;3.55;2.58;;;;;;;20.57;47.40;96054.28;5010059;28;20219;-59
2022/10/16 09:48:59;;;;;;;4.28;2.67;;;;;;;20.63;47.71;96022.63;5010243;28;20218;-59
2022/10/16 09:51:30;;;;;;;4.07;2.97;;;;;;;20.96;47.72;96012.34;5051633;28;20234;-61
2022/10/16 09:54:01;;;;;;;4.05;2.92;;;;;;;21.22;48.16;95993.16;5053928;28;20203;-64
2022/10/16 09:56:32;;;;;;;6.18;2.50;;;;;;;21.45;47.09;96027.75;5053886;28;20337;-62
2022/10/16 09:59:10;;;;;;;5.05;3.03;;;;;;;21.78;46.04;96051.81;5054173;28;20240;-62
2022/10/16 10:01:39;;;;;;;3.22;2.70;;;;;;;22.04;44.71;96091.31;5053925;28;20188;-62
2022/10/16 10:04:06;;;;;;;4.88;2.83;;;;;;;22.24;44.29;96095.16;5054010;28;20212;-62
2022/10/16 10:06:54;;;;;;;4.68;2.78;;;;;;;22.49;43.32;96124.41;5071492;28;20227;-63
2022/10/16 10:09:38;;;;;;;5.07;3.15;;;;;;;22.53;43.31;96105.78;5071464;28;20215;-61
2022/10/16 10:12:06;;;;;;;4.97;3.30;;;;;;;22.29;42.86;96097.25;5053499;28;20662;-61
2022/10/16 10:14:52;;;;;;;3.75;3.00;;;;;;;21.48;42.54;96088.72;5071331;28;20200;-59
2022/10/16 10:17:21;;;;;;;4.55;2.78;;;;;;;21.01;44.24;96007.50;5071576;28;20204;-60
2022/10/16 10:19:47;;;;;;;5.93;3.58;;;;;;;21.61;42.83;96066.56;5071660;28;20205;-62
2022/10/16 10:22:17;;;;;;;4.22;2.85;;;;;;;21.54;41.76;96111.38;5071228;28;20188;-63
2022/10/16 10:24:44;;;;;;;7.57;2.90;;;;;;;22.02;42.23;96080.31;5071498;28;20201;-61
2022/10/16 10:27:16;;;;;;;3.35;2.95;;;;;;;22.08;43.05;96040.78;5071404;28;20231;-60
2022/10/16 10:29:45;;;;;;;4.32;2.30;;;;;;;22.52;42.56;96064.47;5070958;28;20289;-62
2022/10/16 10:32:28;;;;;;;3.15;2.83;;;;;;;22.80;42.91;96038.91;5052068;28;20632;-59
2022/10/16 10:35:13;;;;;;;5.78;2.60;;;;;;;21.88;41.33;96087.94;5068152;23;20334;-59
2022/10/16 10:37:50;;;;;;;3.63;2.53;;;;;;;21.92;41.47;96081.47;5031193;28;20202;-58
2022/10/16 10:40:30;;;;;;;3.22;2.92;;;;;;;22.25;42.05;96039.78;5031443;28;20209;-60
2022/10/16 10:43:29;;;;;;;5.70;2.90;;;;;;;22.59;41.55;96068.00;5031288;28;20200;-59
2022/10/16 10:46:02;;;;;;;3.70;2.70;;;;;;;22.53;40.05;96121.31;5005947;28;20817;-62
2022/10/16 10:48:51;;;;;;;3.92;3.40;;;;;;;22.52;40.52;96087.78;5031369;28;20197;-62
2022/10/16 10:51:40;;;;;;;5.25;2.58;;;;;;;22.57;37.72;96199.56;5031096;28;20198;-62
2022/10/16 10:54:25;;;;;;;2.90;2.40;;;;;;;22.11;36.77;96228.78;5031112;28;20588;-62
2022/10/16 10:56:55;;;;;;;2.85;2.38;;;;;;;22.00;38.14;96148.81;5031149;28;20190;-62
2022/10/16 11:00:00;;;;;;;2.83;1.85;;;;;;;20.52;38.33;96130.66;5031204;28;20248;-59
2022/10/16 11:02:25;;;;;;;3.42;1.98;;;;;;;21.20;39.05;96088.22;5013240;28;20296;-63
2022/10/16 11:05:15;;;;;;;3.25;1.90;;;;;;;21.79;39.39;96070.78;5031095;28;20285;-59
2022/10/16 11:07:59;;;;;;;2.85;2.17;;;;;;;22.32;38.13;96144.38;5030797;28;20252;-59
2022/10/16 11:10:44;;;;;;;2.55;1.85;;;;;;;22.68;38.30;96125.84;5067414;22;20228;-59
2022/10/16 11:13:18;;;;;;;2.63;2.10;;;;;;;22.85;36.41;96212.97;5070870;28;20196;-60
2022/10/16 11:15:48;;;;;;;3.42;2.35;;;;;;;22.93;35.75;96216.38;5069246;28;20307;-59
2022/10/16 11:18:21;;;;;;;2.70;2.38;;;;;;;22.94;35.89;96214.59;5070572;28;20667;-59
2022/10/16 11:20:54;;;;;;;3.25;1.80;;;;;;;23.09;37.25;96138.44;5070773;28;20648;-62
2022/10/16 11:23:41;;;;;;;4.38;2.40;;;;;;;23.17;35.42;96212.84;5071238;28;20185;-62
2022/10/16 11:26:15;;;;;;;2.10;1.90;;;;;;;22.96;34.58;96238.56;5071330;28;20200;-61
2022/10/16 11:28:54;;;;;;;4.35;2.10;;;;;;;22.83;36.82;96119.78;5074300;28;20685;-61
2022/10/16 11:31:35;;;;;;;2.60;2.35;;;;;;;23.00;37.52;96094.56;5073270;28;20192;-62
2022/10/16 11:34:07;;;;;;;2.55;2.13;;;;;;;22.88;37.49;96086.38;5072764;28;20208;-61
2022/10/16 11:36:56;;;;;;;2.40;2.20;;;;;;;22.95;37.65;96071.72;5072795;28;20195;-61
2022/10/16 11:39:28;;;;;;;2.70;1.90;;;;;;;23.09;37.94;96070.97;5074230;28;20212;-59
2022/10/16 11:42:11;;;;;;;3.47;2.38;;;;;;;23.24;37.70;96073.66;5073989;28;20253;-61